sensor_id;sensor_type;location;lat;lon;timestamp;P1;durP1;ratioP1;P2;durP2;ratioP2
28724;SDS011;43472;48.980;9.646;2024-03-08T00:02:27;25.48;;;13.55;;
28724;SDS011;43472;48.980;9.646;2024-03-08T00:07:30;23.50;;;12.98;;
28724;SDS011;43472;48.980;9.646;2024-03-08T00:12:32;27.38;;;13.20;;
28724;SDS011;43472;48.980;9.646;2024-03-08T00:17:35;26.45;;;13.75;;
28724;SDS011;43472;48.980;9.646;2024-03-08T00:22:37;26.83;;;14.25;;
28724;SDS011;43472;48.980;9.646;2024-03-08T00:27:40;24.60;;;13.23;;
28724;SDS011;43472;48.980;9.646;2024-03-08T03:48:07;23.40;;;13.02;;
28724;SDS011;43472;48.980;9.646;2024-03-08T03:53:12;26.33;;;13.05;;
28724;SDS011;43472;48.980;9.646;2024-03-08T03:58:14;26.73;;;13.77;;
28724;SDS011;43472;48.980;9.646;2024-03-08T04:03:17;26.75;;;12.85;;
28724;SDS011;43472;48.980;9.646;2024-03-08T04:08:19;31.60;;;14.23;;
28724;SDS011;43472;48.980;9.646;2024-03-08T04:13:20;29.33;;;13.48;;
28724;SDS011;43472;48.980;9.646;2024-03-08T04:18:22;27.17;;;13.10;;
28724;SDS011;43472;48.980;9.646;2024-03-08T04:23:24;28.33;;;14.38;;
28724;SDS011;43472;48.980;9.646;2024-03-08T04:28:25;26.67;;;12.48;;
28724;SDS011;43472;48.980;9.646;2024-03-08T04:33:27;31.15;;;13.52;;
28724;SDS011;43472;48.980;9.646;2024-03-08T04:38:29;29.30;;;14.73;;
28724;SDS011;43472;48.980;9.646;2024-03-08T04:43:32;25.08;;;12.02;;
28724;SDS011;43472;48.980;9.646;2024-03-08T04:48:34;27.73;;;13.27;;
28724;SDS011;43472;48.980;9.646;2024-03-08T04:53:37;25.23;;;13.13;;
28724;SDS011;43472;48.980;9.646;2024-03-08T04:58:40;23.25;;;12.65;;
28724;SDS011;43472;48.980;9.646;2024-03-08T05:03:41;25.80;;;15.00;;
28724;SDS011;43472;48.980;9.646;2024-03-08T05:08:43;25.92;;;14.25;;
28724;SDS011;43472;48.980;9.646;2024-03-08T05:13:45;24.08;;;13.68;;
28724;SDS011;43472;48.980;9.646;2024-03-08T05:18:47;29.50;;;12.93;;
28724;SDS011;43472;48.980;9.646;2024-03-08T05:23:50;30.42;;;14.38;;
28724;SDS011;43472;48.980;9.646;2024-03-08T05:28:52;24.67;;;14.57;;
28724;SDS011;43472;48.980;9.646;2024-03-08T05:33:53;25.98;;;13.27;;
28724;SDS011;43472;48.980;9.646;2024-03-08T05:38:56;25.90;;;14.48;;
28724;SDS011;43472;48.980;9.646;2024-03-08T05:43:58;29.52;;;12.88;;
28724;SDS011;43472;48.980;9.646;2024-03-08T05:49:00;25.63;;;13.75;;
28724;SDS011;43472;48.980;9.646;2024-03-08T05:54:08;26.95;;;13.70;;
28724;SDS011;43472;48.980;9.646;2024-03-08T05:59:13;25.70;;;13.55;;
28724;SDS011;43472;48.980;9.646;2024-03-08T06:04:15;25.50;;;14.07;;
28724;SDS011;43472;48.980;9.646;2024-03-08T06:09:19;25.88;;;12.82;;
28724;SDS011;43472;48.980;9.646;2024-03-08T06:14:25;26.58;;;14.10;;
28724;SDS011;43472;48.980;9.646;2024-03-08T06:19:27;29.75;;;14.07;;
28724;SDS011;43472;48.980;9.646;2024-03-08T06:24:29;28.65;;;14.70;;
28724;SDS011;43472;48.980;9.646;2024-03-08T06:29:30;27.00;;;13.93;;
28724;SDS011;43472;48.980;9.646;2024-03-08T06:34:32;27.20;;;14.55;;
28724;SDS011;43472;48.980;9.646;2024-03-08T06:39:35;24.30;;;13.15;;
28724;SDS011;43472;48.980;9.646;2024-03-08T06:44:37;25.83;;;14.65;;
28724;SDS011;43472;48.980;9.646;2024-03-08T06:49:42;26.90;;;13.80;;
28724;SDS011;43472;48.980;9.646;2024-03-08T06:54:44;27.25;;;13.70;;
28724;SDS011;43472;48.980;9.646;2024-03-08T06:59:46;26.70;;;15.07;;
28724;SDS011;43472;48.980;9.646;2024-03-08T07:04:48;29.35;;;14.07;;
28724;SDS011;43472;48.980;9.646;2024-03-08T07:09:51;26.30;;;14.05;;
28724;SDS011;43472;48.980;9.646;2024-03-08T07:14:53;24.90;;;14.40;;
28724;SDS011;43472;48.980;9.646;2024-03-08T07:19:55;26.48;;;14.20;;
28724;SDS011;43472;48.980;9.646;2024-03-08T07:24:58;25.75;;;14.35;;
28724;SDS011;43472;48.980;9.646;2024-03-08T07:30:21;23.23;;;12.77;;
28724;SDS011;43472;48.980;9.646;2024-03-08T07:36:00;23.38;;;13.55;;
28724;SDS011;43472;48.980;9.646;2024-03-08T07:41:02;25.90;;;12.80;;
28724;SDS011;43472;48.980;9.646;2024-03-08T07:46:06;25.63;;;13.15;;
28724;SDS011;43472;48.980;9.646;2024-03-08T07:51:07;30.17;;;13.38;;
28724;SDS011;43472;48.980;9.646;2024-03-08T07:56:11;29.95;;;14.75;;
28724;SDS011;43472;48.980;9.646;2024-03-08T08:01:17;21.60;;;12.45;;
28724;SDS011;43472;48.980;9.646;2024-03-08T08:06:20;24.98;;;13.27;;
28724;SDS011;43472;48.980;9.646;2024-03-08T08:11:21;25.45;;;13.50;;
28724;SDS011;43472;48.980;9.646;2024-03-08T08:16:23;26.55;;;13.02;;
28724;SDS011;43472;48.980;9.646;2024-03-08T08:21:27;26.23;;;11.88;;
28724;SDS011;43472;48.980;9.646;2024-03-08T08:26:29;23.50;;;12.00;;
28724;SDS011;43472;48.980;9.646;2024-03-08T08:31:33;25.48;;;12.50;;
28724;SDS011;43472;48.980;9.646;2024-03-08T08:36:35;24.83;;;12.85;;
28724;SDS011;43472;48.980;9.646;2024-03-08T08:41:38;25.38;;;13.32;;
28724;SDS011;43472;48.980;9.646;2024-03-08T08:46:40;26.15;;;13.23;;
28724;SDS011;43472;48.980;9.646;2024-03-08T08:51:48;24.05;;;12.73;;
28724;SDS011;43472;48.980;9.646;2024-03-08T08:56:51;23.52;;;13.18;;
28724;SDS011;43472;48.980;9.646;2024-03-08T09:01:52;24.60;;;13.20;;
28724;SDS011;43472;48.980;9.646;2024-03-08T09:06:55;26.27;;;13.50;;
28724;SDS011;43472;48.980;9.646;2024-03-08T09:11:58;30.05;;;14.45;;
28724;SDS011;43472;48.980;9.646;2024-03-08T09:17:00;24.15;;;13.40;;
28724;SDS011;43472;48.980;9.646;2024-03-08T09:22:02;28.63;;;14.43;;
28724;SDS011;43472;48.980;9.646;2024-03-08T09:27:07;30.48;;;15.55;;
28724;SDS011;43472;48.980;9.646;2024-03-08T09:32:10;26.27;;;15.18;;
28724;SDS011;43472;48.980;9.646;2024-03-08T09:37:12;25.65;;;13.95;;
28724;SDS011;43472;48.980;9.646;2024-03-08T09:42:15;27.40;;;13.20;;
28724;SDS011;43472;48.980;9.646;2024-03-08T09:47:17;25.83;;;14.20;;
28724;SDS011;43472;48.980;9.646;2024-03-08T09:52:19;24.70;;;12.93;;
28724;SDS011;43472;48.980;9.646;2024-03-08T09:57:21;23.70;;;13.73;;
28724;SDS011;43472;48.980;9.646;2024-03-08T10:02:23;27.85;;;13.95;;
28724;SDS011;43472;48.980;9.646;2024-03-08T10:07:25;26.55;;;13.70;;
28724;SDS011;43472;48.980;9.646;2024-03-08T10:12:27;26.75;;;13.95;;
28724;SDS011;43472;48.980;9.646;2024-03-08T10:17:29;26.58;;;14.27;;
28724;SDS011;43472;48.980;9.646;2024-03-08T10:22:34;26.45;;;14.88;;
28724;SDS011;43472;48.980;9.646;2024-03-08T10:27:37;26.42;;;14.15;;
28724;SDS011;43472;48.980;9.646;2024-03-08T10:32:40;25.70;;;12.82;;
28724;SDS011;43472;48.980;9.646;2024-03-08T10:37:47;24.80;;;14.70;;
28724;SDS011;43472;48.980;9.646;2024-03-08T10:42:54;27.70;;;13.68;;
28724;SDS011;43472;48.980;9.646;2024-03-08T10:53:39;25.90;;;13.90;;
28724;SDS011;43472;48.980;9.646;2024-03-08T10:58:42;24.10;;;13.98;;
28724;SDS011;43472;48.980;9.646;2024-03-08T11:03:46;23.80;;;13.85;;
28724;SDS011;43472;48.980;9.646;2024-03-08T11:08:55;25.48;;;13.65;;
28724;SDS011;43472;48.980;9.646;2024-03-08T11:13:57;26.25;;;13.23;;
28724;SDS011;43472;48.980;9.646;2024-03-08T11:19:00;22.85;;;12.57;;
28724;SDS011;43472;48.980;9.646;2024-03-08T11:24:10;26.13;;;13.55;;
28724;SDS011;43472;48.980;9.646;2024-03-08T11:34:40;20.35;;;11.82;;
28724;SDS011;43472;48.980;9.646;2024-03-08T11:39:53;25.65;;;13.48;;
28724;SDS011;43472;48.980;9.646;2024-03-08T11:45:00;22.38;;;13.05;;
28724;SDS011;43472;48.980;9.646;2024-03-08T11:50:06;22.60;;;12.32;;
28724;SDS011;43472;48.980;9.646;2024-03-08T11:55:12;21.40;;;10.90;;
28724;SDS011;43472;48.980;9.646;2024-03-08T12:00:15;20.67;;;11.25;;
28724;SDS011;43472;48.980;9.646;2024-03-08T12:05:27;24.00;;;11.60;;
28724;SDS011;43472;48.980;9.646;2024-03-08T12:10:29;22.80;;;12.55;;
28724;SDS011;43472;48.980;9.646;2024-03-08T12:15:31;17.35;;;11.50;;
28724;SDS011;43472;48.980;9.646;2024-03-08T12:20:35;17.73;;;11.25;;
28724;SDS011;43472;48.980;9.646;2024-03-08T12:25:37;20.35;;;11.75;;
28724;SDS011;43472;48.980;9.646;2024-03-08T12:30:49;19.20;;;11.10;;
28724;SDS011;43472;48.980;9.646;2024-03-08T12:35:54;19.27;;;11.35;;
28724;SDS011;43472;48.980;9.646;2024-03-08T12:40:58;19.90;;;11.00;;
28724;SDS011;43472;48.980;9.646;2024-03-08T12:46:00;18.05;;;10.80;;
28724;SDS011;43472;48.980;9.646;2024-03-08T12:51:03;17.92;;;11.25;;
28724;SDS011;43472;48.980;9.646;2024-03-08T12:56:05;22.35;;;13.18;;
28724;SDS011;43472;48.980;9.646;2024-03-08T13:01:10;19.73;;;12.73;;
28724;SDS011;43472;48.980;9.646;2024-03-08T13:06:13;20.85;;;12.68;;
28724;SDS011;43472;48.980;9.646;2024-03-08T13:11:16;18.55;;;11.52;;
28724;SDS011;43472;48.980;9.646;2024-03-08T13:16:18;20.65;;;14.07;;
28724;SDS011;43472;48.980;9.646;2024-03-08T13:21:21;22.05;;;13.57;;
28724;SDS011;43472;48.980;9.646;2024-03-08T13:26:25;20.55;;;13.43;;
28724;SDS011;43472;48.980;9.646;2024-03-08T13:31:33;22.02;;;13.27;;
28724;SDS011;43472;48.980;9.646;2024-03-08T13:36:37;24.02;;;14.38;;
28724;SDS011;43472;48.980;9.646;2024-03-08T13:41:44;18.65;;;13.82;;
28724;SDS011;43472;48.980;9.646;2024-03-08T13:46:47;21.13;;;14.70;;
28724;SDS011;43472;48.980;9.646;2024-03-08T13:51:54;19.45;;;14.13;;
28724;SDS011;43472;48.980;9.646;2024-03-08T13:56:57;18.92;;;14.10;;
28724;SDS011;43472;48.980;9.646;2024-03-08T14:01:59;20.20;;;14.00;;
28724;SDS011;43472;48.980;9.646;2024-03-08T14:07:07;19.08;;;14.32;;
28724;SDS011;43472;48.980;9.646;2024-03-08T14:12:12;17.10;;;12.60;;
28724;SDS011;43472;48.980;9.646;2024-03-08T14:17:15;18.67;;;13.55;;
28724;SDS011;43472;48.980;9.646;2024-03-08T14:22:21;17.30;;;13.60;;
28724;SDS011;43472;48.980;9.646;2024-03-08T14:27:24;17.23;;;13.65;;
28724;SDS011;43472;48.980;9.646;2024-03-08T14:32:28;18.45;;;13.32;;
28724;SDS011;43472;48.980;9.646;2024-03-08T14:37:30;21.55;;;14.27;;
28724;SDS011;43472;48.980;9.646;2024-03-08T14:42:32;18.95;;;13.00;;
28724;SDS011;43472;48.980;9.646;2024-03-08T14:47:34;18.63;;;12.38;;
28724;SDS011;43472;48.980;9.646;2024-03-08T14:52:40;18.83;;;12.90;;
28724;SDS011;43472;48.980;9.646;2024-03-08T14:57:42;19.20;;;12.95;;
28724;SDS011;43472;48.980;9.646;2024-03-08T15:02:47;20.20;;;13.63;;
28724;SDS011;43472;48.980;9.646;2024-03-08T15:07:49;20.63;;;11.57;;
28724;SDS011;43472;48.980;9.646;2024-03-08T15:12:53;19.67;;;11.93;;
28724;SDS011;43472;48.980;9.646;2024-03-08T15:17:57;20.67;;;11.68;;
28724;SDS011;43472;48.980;9.646;2024-03-08T15:23:00;22.98;;;12.23;;
28724;SDS011;43472;48.980;9.646;2024-03-08T15:28:01;18.08;;;11.40;;
28724;SDS011;43472;48.980;9.646;2024-03-08T15:33:05;20.30;;;11.43;;
28724;SDS011;43472;48.980;9.646;2024-03-08T15:38:11;17.67;;;10.40;;
28724;SDS011;43472;48.980;9.646;2024-03-08T15:43:14;17.13;;;10.23;;
28724;SDS011;43472;48.980;9.646;2024-03-08T15:48:17;19.13;;;11.65;;
28724;SDS011;43472;48.980;9.646;2024-03-08T15:53:19;20.20;;;10.93;;
28724;SDS011;43472;48.980;9.646;2024-03-08T15:58:21;21.55;;;11.60;;
28724;SDS011;43472;48.980;9.646;2024-03-08T16:03:23;19.23;;;11.45;;
28724;SDS011;43472;48.980;9.646;2024-03-08T16:08:25;18.15;;;10.82;;
28724;SDS011;43472;48.980;9.646;2024-03-08T16:13:27;16.63;;;9.90;;
28724;SDS011;43472;48.980;9.646;2024-03-08T16:18:29;18.15;;;9.70;;
28724;SDS011;43472;48.980;9.646;2024-03-08T16:23:32;20.98;;;10.55;;
28724;SDS011;43472;48.980;9.646;2024-03-08T16:28:34;16.40;;;8.93;;
28724;SDS011;43472;48.980;9.646;2024-03-08T16:33:43;16.85;;;8.95;;
28724;SDS011;43472;48.980;9.646;2024-03-08T16:38:46;17.55;;;10.32;;
28724;SDS011;43472;48.980;9.646;2024-03-08T16:43:49;15.27;;;9.27;;
28724;SDS011;43472;48.980;9.646;2024-03-08T16:48:51;16.23;;;9.07;;
28724;SDS011;43472;48.980;9.646;2024-03-08T16:53:53;15.43;;;9.10;;
28724;SDS011;43472;48.980;9.646;2024-03-08T16:58:59;17.38;;;9.77;;
28724;SDS011;43472;48.980;9.646;2024-03-08T17:04:05;18.73;;;9.20;;
28724;SDS011;43472;48.980;9.646;2024-03-08T17:09:07;14.40;;;8.70;;
28724;SDS011;43472;48.980;9.646;2024-03-08T17:14:13;14.35;;;8.88;;
28724;SDS011;43472;48.980;9.646;2024-03-08T17:19:17;18.08;;;10.15;;
28724;SDS011;43472;48.980;9.646;2024-03-08T17:24:31;16.05;;;9.55;;
28724;SDS011;43472;48.980;9.646;2024-03-08T17:34:51;17.38;;;10.15;;
28724;SDS011;43472;48.980;9.646;2024-03-08T17:40:00;17.95;;;8.50;;
28724;SDS011;43472;48.980;9.646;2024-03-08T17:45:07;14.13;;;8.60;;
28724;SDS011;43472;48.980;9.646;2024-03-08T17:50:11;14.73;;;8.75;;
28724;SDS011;43472;48.980;9.646;2024-03-08T17:55:15;13.82;;;8.00;;
28724;SDS011;43472;48.980;9.646;2024-03-08T18:00:18;16.13;;;8.15;;
28724;SDS011;43472;48.980;9.646;2024-03-08T18:05:41;14.40;;;8.35;;
28724;SDS011;43472;48.980;9.646;2024-03-08T18:10:45;15.98;;;8.88;;
28724;SDS011;43472;48.980;9.646;2024-03-08T18:15:50;16.55;;;8.63;;
28724;SDS011;43472;48.980;9.646;2024-03-08T18:20:52;13.57;;;8.25;;
28724;SDS011;43472;48.980;9.646;2024-03-08T18:25:54;17.55;;;9.60;;
28724;SDS011;43472;48.980;9.646;2024-03-08T18:30:56;14.80;;;8.15;;
28724;SDS011;43472;48.980;9.646;2024-03-08T18:35:58;13.95;;;7.60;;
28724;SDS011;43472;48.980;9.646;2024-03-08T18:41:00;14.32;;;8.55;;
28724;SDS011;43472;48.980;9.646;2024-03-08T18:46:02;14.45;;;7.35;;
28724;SDS011;43472;48.980;9.646;2024-03-08T18:51:05;13.75;;;8.07;;
28724;SDS011;43472;48.980;9.646;2024-03-08T18:56:07;14.60;;;7.38;;
28724;SDS011;43472;48.980;9.646;2024-03-08T19:01:10;12.85;;;7.85;;
28724;SDS011;43472;48.980;9.646;2024-03-08T19:06:12;13.98;;;7.70;;
28724;SDS011;43472;48.980;9.646;2024-03-08T19:11:15;14.80;;;8.60;;
28724;SDS011;43472;48.980;9.646;2024-03-08T19:16:17;15.77;;;6.78;;
28724;SDS011;43472;48.980;9.646;2024-03-08T19:21:19;12.07;;;6.63;;
28724;SDS011;43472;48.980;9.646;2024-03-08T19:26:22;12.52;;;6.88;;
28724;SDS011;43472;48.980;9.646;2024-03-08T19:31:24;14.88;;;7.13;;
28724;SDS011;43472;48.980;9.646;2024-03-08T19:36:26;12.93;;;6.95;;
28724;SDS011;43472;48.980;9.646;2024-03-08T19:41:29;14.15;;;6.90;;
28724;SDS011;43472;48.980;9.646;2024-03-08T19:46:32;10.52;;;6.40;;
28724;SDS011;43472;48.980;9.646;2024-03-08T19:51:42;11.93;;;6.75;;
28724;SDS011;43472;48.980;9.646;2024-03-08T19:56:44;11.95;;;6.68;;
28724;SDS011;43472;48.980;9.646;2024-03-08T20:01:47;13.38;;;7.00;;
28724;SDS011;43472;48.980;9.646;2024-03-08T20:06:49;12.52;;;7.50;;
28724;SDS011;43472;48.980;9.646;2024-03-08T20:11:51;12.20;;;6.93;;
28724;SDS011;43472;48.980;9.646;2024-03-08T20:16:56;25.10;;;11.85;;
28724;SDS011;43472;48.980;9.646;2024-03-08T20:21:58;11.43;;;7.03;;
28724;SDS011;43472;48.980;9.646;2024-03-08T20:27:02;25.55;;;11.07;;
28724;SDS011;43472;48.980;9.646;2024-03-08T20:32:04;11.35;;;5.80;;
28724;SDS011;43472;48.980;9.646;2024-03-08T20:37:06;11.43;;;5.88;;
28724;SDS011;43472;48.980;9.646;2024-03-08T20:42:10;8.93;;;5.60;;
28724;SDS011;43472;48.980;9.646;2024-03-08T20:47:12;12.07;;;6.28;;
28724;SDS011;43472;48.980;9.646;2024-03-08T20:52:14;12.23;;;5.75;;
28724;SDS011;43472;48.980;9.646;2024-03-08T20:57:16;16.95;;;8.32;;
28724;SDS011;43472;48.980;9.646;2024-03-08T21:02:18;10.75;;;6.15;;
28724;SDS011;43472;48.980;9.646;2024-03-08T21:07:20;10.45;;;6.50;;
28724;SDS011;43472;48.980;9.646;2024-03-08T21:12:22;14.43;;;7.10;;
28724;SDS011;43472;48.980;9.646;2024-03-08T21:17:24;19.77;;;13.55;;
28724;SDS011;43472;48.980;9.646;2024-03-08T21:22:26;12.68;;;5.90;;
28724;SDS011;43472;48.980;9.646;2024-03-08T21:27:28;12.25;;;6.82;;
28724;SDS011;43472;48.980;9.646;2024-03-08T21:32:30;12.02;;;6.60;;
28724;SDS011;43472;48.980;9.646;2024-03-08T21:37:32;12.32;;;7.13;;
28724;SDS011;43472;48.980;9.646;2024-03-08T21:42:34;15.05;;;6.90;;
28724;SDS011;43472;48.980;9.646;2024-03-08T21:47:36;12.20;;;6.22;;
28724;SDS011;43472;48.980;9.646;2024-03-08T21:52:42;9.73;;;5.82;;
28724;SDS011;43472;48.980;9.646;2024-03-08T21:57:50;11.60;;;6.23;;
28724;SDS011;43472;48.980;9.646;2024-03-08T22:02:52;13.35;;;6.53;;
28724;SDS011;43472;48.980;9.646;2024-03-08T22:07:54;9.63;;;5.63;;
28724;SDS011;43472;48.980;9.646;2024-03-08T22:12:56;8.93;;;5.32;;
28724;SDS011;43472;48.980;9.646;2024-03-08T22:17:58;9.73;;;5.35;;
28724;SDS011;43472;48.980;9.646;2024-03-08T22:23:00;9.10;;;5.32;;
28724;SDS011;43472;48.980;9.646;2024-03-08T22:28:04;11.15;;;6.55;;
28724;SDS011;43472;48.980;9.646;2024-03-08T22:33:08;10.27;;;5.88;;
28724;SDS011;43472;48.980;9.646;2024-03-08T22:38:10;15.60;;;6.38;;
28724;SDS011;43472;48.980;9.646;2024-03-08T22:43:13;13.80;;;6.68;;
28724;SDS011;43472;48.980;9.646;2024-03-08T22:48:15;12.13;;;6.35;;
28724;SDS011;43472;48.980;9.646;2024-03-08T22:58:44;10.95;;;6.30;;
28724;SDS011;43472;48.980;9.646;2024-03-08T23:03:46;12.30;;;6.18;;
28724;SDS011;43472;48.980;9.646;2024-03-08T23:08:49;12.25;;;6.28;;
28724;SDS011;43472;48.980;9.646;2024-03-08T23:13:51;14.35;;;6.10;;
28724;SDS011;43472;48.980;9.646;2024-03-08T23:18:53;13.45;;;7.60;;
28724;SDS011;43472;48.980;9.646;2024-03-08T23:23:56;11.23;;;6.20;;
28724;SDS011;43472;48.980;9.646;2024-03-08T23:28:58;14.88;;;7.65;;
28724;SDS011;43472;48.980;9.646;2024-03-08T23:34:00;12.25;;;6.43;;
28724;SDS011;43472;48.980;9.646;2024-03-08T23:39:02;13.32;;;7.97;;
28724;SDS011;43472;48.980;9.646;2024-03-08T23:44:05;16.88;;;8.82;;
28724;SDS011;43472;48.980;9.646;2024-03-08T23:49:08;14.57;;;7.85;;
28724;SDS011;43472;48.980;9.646;2024-03-08T23:54:09;10.73;;;6.28;;
28724;SDS011;43472;48.980;9.646;2024-03-08T23:59:11;11.68;;;6.65;;
